Time;durP1;ratioP1;P1;durP2;ratioP2;P2;SDS_P1;SDS_P2;PMS_P1;PMS_P2;Temp;Humidity;BMP_temperature;BMP_pressure;BME280_temperature;BME280_humidity;BME280_pressure;Samples;Min_cycle;Max_cycle;Signal;HPM_P1;HPM_P2
2021/07/25 00:02:14;;;;;;;9.13;6.78;;;21.30;93.00;;;;;;5002043;28;20129;-76
2021/07/25 00:04:39;;;;;;;13.25;7.80;;;21.30;93.00;;;;;;5018140;28;20500;-75
2021/07/25 00:07:05;;;;;;;10.05;8.30;;;21.30;93.70;;;;;;5003307;28;20045;-75
2021/07/25 00:09:30;;;;;;;10.65;7.90;;;21.30;93.50;;;;;;5001748;28;20019;-75
2021/07/25 00:11:56;;;;;;;9.52;7.88;;;21.20;93.40;;;;;;5001553;28;20488;-75
2021/07/25 00:14:21;;;;;;;8.77;7.32;;;21.20;93.60;;;;;;5003735;28;20108;-75
2021/07/25 00:16:47;;;;;;;11.18;7.70;;;21.20;93.70;;;;;;5001968;28;20036;-75
2021/07/25 00:19:13;;;;;;;12.02;9.02;;;21.20;93.60;;;;;;5002908;28;20033;-76
2021/07/25 00:21:40;;;;;;;10.63;8.88;;;21.20;93.50;;;;;;5017965;28;20507;-76
2021/07/25 00:24:05;;;;;;;10.32;8.63;;;21.10;93.30;;;;;;5003874;28;20121;-76
2021/07/25 00:26:48;;;;;;;11.88;7.93;;;21.00;93.40;;;;;;5002997;28;20117;-76
2021/07/25 00:29:15;;;;;;;10.05;7.55;;;21.10;93.30;;;;;;5000139;28;20326;-76
2021/07/25 00:31:40;;;;;;;12.40;7.80;;;21.00;93.60;;;;;;5001831;28;20026;-76
2021/07/25 00:34:06;;;;;;;10.77;7.65;;;21.10;93.80;;;;;;5002164;28;20093;-76
2021/07/25 00:36:31;;;;;;;16.48;8.40;;;21.10;93.70;;;;;;5001595;28;20026;-76
2021/07/25 00:38:57;;;;;;;11.90;8.07;;;21.10;93.90;;;;;;5001019;28;20513;-76
2021/07/25 00:41:22;;;;;;;11.30;7.68;;;21.20;93.70;;;;;;5002273;28;20042;-76
2021/07/25 00:43:49;;;;;;;9.15;7.35;;;21.20;93.50;;;;;;5000604;28;20105;-76
2021/07/25 00:46:15;;;;;;;10.07;7.97;;;21.20;93.60;;;;;;5001854;28;20088;-76
2021/07/25 00:48:42;;;;;;;11.70;8.77;;;21.10;93.70;;;;;;5001528;28;20057;-76
2021/07/25 00:51:07;;;;;;;11.20;7.53;;;20.90;94.00;;;;;;5002277;28;20116;-76
2021/07/25 00:53:34;;;;;;;9.38;7.55;;;20.80;94.10;;;;;;5001441;28;20017;-76
2021/07/25 00:56:02;;;;;;;10.43;7.68;;;20.80;94.20;;;;;;5001282;28;20389;-76
2021/07/25 00:58:28;;;;;;;9.00;7.22;;;20.80;94.30;;;;;;5001622;28;20065;-76
2021/07/25 01:00:53;;;;;;;7.35;6.38;;;20.70;94.40;;;;;;5000918;28;20508;-76
2021/07/25 01:03:31;;;;;;;12.30;7.50;;;20.60;94.20;;;;;;5002111;28;20046;-76
2021/07/25 01:06:06;;;;;;;13.77;6.82;;;20.60;94.10;;;;;;5001485;28;20432;-76
2021/07/25 01:08:48;;;;;;;16.80;7.45;;;20.60;94.50;;;;;;5003676;28;20023;-76
2021/07/25 01:11:14;;;;;;;8.68;7.82;;;20.50;94.40;;;;;;5039342;23;20045;-74
2021/07/25 01:13:44;;;;;;;9.65;6.93;;;20.40;94.50;;;;;;5000864;28;20489;-75
2021/07/25 01:16:10;;;;;;;10.30;8.75;;;20.50;94.70;;;;;;5000941;28;20439;-74
2021/07/25 01:18:46;;;;;;;10.27;8.57;;;20.60;94.70;;;;;;5002175;28;20026;-74
2021/07/25 01:21:15;;;;;;;;;;;20.60;94.60;;;;;;5000618;28;20038;-75
2021/07/25 01:23:42;;;;;;;12.35;7.25;;;20.70;94.70;;;;;;5002414;28;19938;-75
2021/07/25 01:26:10;;;;;;;9.50;7.13;;;20.80;94.60;;;;;;5000248;28;20524;-74
2021/07/25 01:28:37;;;;;;;7.00;5.78;;;20.80;94.70;;;;;;4999773;28;20038;-74
2021/07/25 01:31:10;;;;;;;9.80;6.38;;;20.80;94.60;;;;;;4998171;28;20528;-75
2021/07/25 01:33:37;;;;;;;10.27;7.25;;;20.90;94.50;;;;;;5001149;28;20050;-74
2021/07/25 01:36:03;;;;;;;8.95;7.35;;;20.90;94.50;;;;;;5000752;28;20037;-75
2021/07/25 01:38:28;;;;;;;14.77;8.38;;;20.90;94.40;;;;;;5000854;28;20030;-75
2021/07/25 01:41:12;;;;;;;10.18;7.57;;;20.80;94.50;;;;;;4999645;28;20065;-75
2021/07/25 01:43:43;;;;;;;12.85;10.20;;;20.80;94.30;;;;;;4998543;28;20034;-74
2021/07/25 01:46:09;;;;;;;8.10;6.70;;;20.90;94.30;;;;;;5000448;28;20033;-75
2021/07/25 01:48:38;;;;;;;10.10;7.68;;;20.80;94.20;;;;;;5001036;28;20034;-75
2021/07/25 01:51:04;;;;;;;12.77;8.15;;;20.80;94.20;;;;;;5001388;28;20022;-75
2021/07/25 01:53:30;;;;;;;16.15;9.38;;;20.70;94.40;;;;;;4998685;28;20481;-73
2021/07/25 01:55:55;;;;;;;9.70;7.80;;;20.60;94.80;;;;;;4999609;28;20033;-75
2021/07/25 01:58:21;;;;;;;8.60;7.43;;;20.30;95.10;;;;;;5001316;28;21736;-75
2021/07/25 02:00:47;;;;;;;12.77;7.57;;;20.20;95.30;;;;;;4999612;28;20077;-75
2021/07/25 02:03:19;;;;;;;9.75;7.53;;;20.10;95.50;;;;;;5001509;28;20038;-75
2021/07/25 02:05:44;;;;;;;13.07;8.50;;;20.00;95.60;;;;;;4999608;28;20026;-75
2021/07/25 02:08:10;;;;;;;10.98;7.35;;;19.90;95.60;;;;;;5000894;28;20057;-75
2021/07/25 02:10:35;;;;;;;10.73;8.38;;;19.90;95.60;;;;;;5000806;28;20029;-75
2021/07/25 02:13:01;;;;;;;12.27;7.07;;;19.90;95.60;;;;;;5000414;28;20445;-75
2021/07/25 02:15:26;;;;;;;21.42;7.20;;;20.00;95.60;;;;;;5000542;28;20030;-74
2021/07/25 02:17:52;;;;;;;11.93;8.13;;;20.20;95.40;;;;;;4999899;28;20512;-75
2021/07/25 02:20:17;;;;;;;9.18;6.82;;;20.30;95.20;;;;;;5000378;28;20612;-74
2021/07/25 02:22:43;;;;;;;9.35;8.38;;;20.20;95.20;;;;;;4999775;28;20030;-74
2021/07/25 02:25:08;;;;;;;13.93;7.82;;;20.10;95.40;;;;;;4998535;28;20079;-74
2021/07/25 02:27:34;;;;;;;10.85;7.25;;;20.00;95.30;;;;;;4998517;28;20030;-75
2021/07/25 02:29:59;;;;;;;10.40;7.72;;;20.00;95.20;;;;;;4999388;28;20037;-75
2021/07/25 02:32:25;;;;;;;12.25;7.47;;;20.00;95.30;;;;;;4998668;28;20053;-74
2021/07/25 02:34:50;;;;;;;11.82;8.05;;;20.00;95.30;;;;;;4999974;28;20030;-75
2021/07/25 02:37:16;;;;;;;8.80;7.25;;;20.10;95.30;;;;;;4999748;28;20034;-75
2021/07/25 02:39:41;;;;;;;12.63;8.45;;;20.20;95.20;;;;;;4999462;28;20052;-75
2021/07/25 02:42:07;;;;;;;9.15;6.85;;;20.20;95.10;;;;;;5000171;28;20026;-75
2021/07/25 02:44:33;;;;;;;9.25;8.20;;;20.20;95.10;;;;;;5000226;28;20041;-75
2021/07/25 02:46:59;;;;;;;10.10;8.23;;;20.10;95.20;;;;;;4999659;28;20031;-75
2021/07/25 02:49:24;;;;;;;9.25;7.28;;;20.10;95.40;;;;;;4999444;28;20027;-75
2021/07/25 02:51:50;;;;;;;7.25;6.43;;;19.90;95.50;;;;;;4999023;28;20041;-75
2021/07/25 02:54:16;;;;;;;8.90;7.60;;;19.90;95.50;;;;;;4999996;28;20477;-75
2021/07/25 02:56:41;;;;;;;11.85;8.18;;;19.90;95.50;;;;;;4999935;28;20501;-75
2021/07/25 02:59:07;;;;;;;10.60;7.45;;;19.80;95.40;;;;;;4999415;28;20413;-75
2021/07/25 03:01:33;;;;;;;11.93;9.23;;;19.80;95.60;;;;;;4998340;28;20468;-75
2021/07/25 03:03:58;;;;;;;8.73;7.47;;;19.70;95.80;;;;;;5000231;28;20041;-75
2021/07/25 03:06:23;;;;;;;10.52;7.15;;;19.70;95.60;;;;;;5000937;28;20105;-75
2021/07/25 03:08:49;;;;;;;10.75;7.53;;;19.80;95.60;;;;;;4999920;28;20037;-75
2021/07/25 03:11:15;;;;;;;10.05;9.02;;;20.00;95.30;;;;;;4997428;28;20389;-75
2021/07/25 03:13:40;;;;;;;8.40;6.63;;;20.00;95.40;;;;;;5000405;28;20437;-75
2021/07/25 03:16:08;;;;;;;10.18;7.85;;;20.00;95.30;;;;;;5000959;28;20470;-75
2021/07/25 03:18:34;;;;;;;10.52;7.25;;;20.10;95.20;;;;;;4997984;28;20033;-75
2021/07/25 03:21:01;;;;;;;8.70;7.80;;;20.20;95.00;;;;;;5001640;28;20029;-75
2021/07/25 03:23:27;;;;;;;12.43;7.75;;;20.20;95.10;;;;;;5003025;28;20057;-75
2021/07/25 03:25:53;;;;;;;13.35;9.55;;;20.30;94.90;;;;;;5002302;28;20388;-75
2021/07/25 03:28:18;;;;;;;9.85;8.55;;;20.30;94.90;;;;;;5003053;28;20026;-75
2021/07/25 03:30:45;;;;;;;11.05;9.38;;;20.40;94.70;;;;;;5003059;28;20033;-75
2021/07/25 03:33:11;;;;;;;9.68;8.27;;;20.40;94.60;;;;;;5001732;28;20037;-75
2021/07/25 03:35:36;;;;;;;10.02;8.65;;;20.40;94.40;;;;;;5003598;28;20041;-75
2021/07/25 03:38:02;;;;;;;10.35;8.15;;;20.40;94.40;;;;;;5002513;28;20125;-75
2021/07/25 03:40:29;;;;;;;11.00;9.15;;;20.40;94.50;;;;;;5003207;28;20041;-75
2021/07/25 03:42:55;;;;;;;10.38;8.13;;;20.40;94.60;;;;;;5001294;28;20552;-75
2021/07/25 03:45:21;;;;;;;13.13;9.50;;;20.40;94.60;;;;;;5003093;28;20034;-75
2021/07/25 03:47:47;;;;;;;10.93;9.20;;;20.40;94.50;;;;;;5002191;28;20396;-75
2021/07/25 03:50:12;;;;;;;8.98;8.07;;;20.20;94.50;;;;;;5003291;28;20042;-75
2021/07/25 03:52:38;;;;;;;10.35;9.27;;;20.20;94.60;;;;;;5002488;28;20037;-75
2021/07/25 03:55:07;;;;;;;24.08;9.57;;;20.30;94.40;;;;;;5002926;28;20085;-73
2021/07/25 03:57:35;;;;;;;16.65;7.78;;;20.20;94.70;;;;;;5001593;28;20525;-73
2021/07/25 04:00:02;;;;;;;20.73;9.77;;;20.10;94.90;;;;;;5003240;28;20539;-73
2021/07/25 04:02:28;;;;;;;17.95;9.45;;;20.00;94.90;;;;;;5001833;28;20053;-73
2021/07/25 04:04:53;;;;;;;11.90;8.45;;;19.80;95.30;;;;;;5004341;28;20708;-73
2021/07/25 04:07:19;;;;;;;9.55;7.68;;;19.80;95.20;;;;;;5003008;28;20049;-73
2021/07/25 04:09:44;;;;;;;9.45;7.88;;;19.80;95.30;;;;;;5002457;28;20029;-73
2021/07/25 04:12:10;;;;;;;9.30;8.40;;;19.90;95.20;;;;;;5003626;28;20100;-73
2021/07/25 04:14:36;;;;;;;10.50;9.43;;;19.90;95.00;;;;;;5001498;28;20022;-73
2021/07/25 04:17:02;;;;;;;15.80;10.55;;;20.00;95.20;;;;;;5002231;28;20026;-73
2021/07/25 04:19:27;;;;;;;16.15;10.63;;;20.00;95.10;;;;;;5001754;28;20037;-73
2021/07/25 04:21:55;;;;;;;13.43;10.07;;;19.90;95.20;;;;;;5015274;28;20381;-73
2021/07/25 04:24:21;;;;;;;13.05;9.70;;;19.80;95.20;;;;;;5001985;28;20035;-73
2021/07/25 04:26:47;;;;;;;12.70;9.63;;;19.70;95.20;;;;;;5002400;28;20560;-73
2021/07/25 04:29:13;;;;;;;17.13;11.77;;;19.60;95.50;;;;;;5000526;28;20145;-73
2021/07/25 04:31:38;;;;;;;14.88;10.93;;;19.70;95.70;;;;;;5001189;28;20041;-73
2021/07/25 04:34:04;;;;;;;11.45;9.55;;;19.80;95.70;;;;;;5001464;28;20041;-73
2021/07/25 04:36:30;;;;;;;13.95;11.20;;;20.00;95.60;;;;;;5002148;28;20493;-73
2021/07/25 04:38:57;;;;;;;15.18;11.50;;;20.30;95.60;;;;;;5016345;28;20033;-73
2021/07/25 04:41:28;;;;;;;16.05;9.30;;;20.50;95.40;;;;;;5000636;28;20042;-73
2021/07/25 04:44:23;;;;;;;13.30;10.55;;;20.60;95.30;;;;;;5001979;28;20023;-73
2021/07/25 04:46:52;;;;;;;19.20;12.55;;;20.50;95.00;;;;;;5001606;28;20027;-73
2021/07/25 04:49:19;;;;;;;15.68;11.00;;;20.50;95.20;;;;;;5001828;28;20036;-73
2021/07/25 04:51:46;;;;;;;12.85;10.10;;;20.40;95.20;;;;;;5007075;28;20057;-73
2021/07/25 04:54:14;;;;;;;12.55;9.90;;;20.30;95.20;;;;;;5002579;28;20022;-73
2021/07/25 04:56:58;;;;;;;16.10;11.48;;;20.20;95.20;;;;;;5001471;28;20029;-73
2021/07/25 04:59:33;;;;;;;14.45;9.90;;;20.20;95.40;;;;;;5000374;28;20025;-73
2021/07/25 05:02:07;;;;;;;14.73;9.80;;;20.20;95.20;;;;;;5001990;28;20080;-73
2021/07/25 05:04:33;;;;;;;13.02;9.90;;;20.20;95.00;;;;;;5002516;28;20026;-73
2021/07/25 05:06:59;;;;;;;13.27;9.32;;;20.30;95.00;;;;;;5001388;28;20026;-73
2021/07/25 05:09:26;;;;;;;12.80;10.80;;;20.40;94.80;;;;;;4999235;28;20524;-73
2021/07/25 05:12:10;;;;;;;13.35;11.00;;;20.40;94.80;;;;;;5000561;28;20068;-73
2021/07/25 05:14:38;;;;;;;13.18;10.35;;;20.40;95.00;;;;;;4999538;28;20453;-73
2021/07/25 05:17:11;;;;;;;13.80;9.43;;;20.40;95.20;;;;;;5000536;28;20519;-73
2021/07/25 05:19:57;;;;;;;16.33;10.48;;;20.50;95.50;;;;;;5001286;28;20041;-73
2021/07/25 05:22:41;;;;;;;14.27;10.83;;;21.00;95.10;;;;;;4999741;28;20081;-73
2021/07/25 05:25:07;;;;;;;13.88;11.80;;;21.60;94.60;;;;;;5000953;28;20125;-73
2021/07/25 05:27:50;;;;;;;12.30;10.38;;;22.00;94.20;;;;;;5001406;28;20044;-73
2021/07/25 05:30:18;;;;;;;17.10;11.57;;;22.50;93.70;;;;;;5001176;28;20034;-73
2021/07/25 05:32:44;;;;;;;12.95;11.07;;;22.80;93.10;;;;;;4999818;28;20044;-73
2021/07/25 05:35:11;;;;;;;17.42;10.80;;;22.70;92.80;;;;;;5000354;28;20104;-73
2021/07/25 05:37:37;;;;;;;12.25;9.55;;;22.50;92.80;;;;;;5001865;28;20033;-73
2021/07/25 05:40:04;;;;;;;17.55;11.45;;;22.30;92.80;;;;;;5000097;28;20515;-73
2021/07/25 05:42:29;;;;;;;19.23;10.57;;;22.50;92.70;;;;;;5001087;28;20982;-73
2021/07/25 05:44:55;;;;;;;13.73;10.52;;;22.80;92.60;;;;;;5001216;28;20057;-73
2021/07/25 05:47:20;;;;;;;16.00;11.27;;;23.10;92.40;;;;;;5016542;28;20026;-73
2021/07/25 05:49:46;;;;;;;14.93;11.35;;;23.30;92.20;;;;;;4998909;28;20382;-73
2021/07/25 05:52:11;;;;;;;14.05;11.95;;;23.30;92.00;;;;;;5000067;28;20079;-73
2021/07/25 05:54:37;;;;;;;15.32;12.15;;;23.40;91.90;;;;;;5001805;28;20507;-73
2021/07/25 05:57:02;;;;;;;18.77;12.32;;;23.40;91.70;;;;;;5015416;28;20117;-73
2021/07/25 05:59:28;;;;;;;16.55;14.02;;;23.50;91.40;;;;;;5001036;28;20448;-73
2021/07/25 06:01:53;;;;;;;16.90;13.55;;;23.60;91.30;;;;;;4999831;28;20049;-73
2021/07/25 06:04:19;;;;;;;40.70;28.52;;;23.60;91.10;;;;;;4999344;28;20033;-73
2021/07/25 06:06:45;;;;;;;25.48;18.40;;;23.60;91.00;;;;;;4998086;28;20068;-73
2021/07/25 06:09:10;;;;;;;14.27;12.10;;;23.80;90.80;;;;;;4997943;28;20034;-72
2021/07/25 06:11:36;;;;;;;21.98;17.45;;;23.90;90.40;;;;;;4999794;28;20041;-72
2021/07/25 06:14:03;;;;;;;25.60;20.77;;;23.90;90.10;;;;;;5000187;28;20477;-73
2021/07/25 06:16:29;;;;;;;14.15;12.52;;;24.00;89.60;;;;;;5000206;28;20038;-73
2021/07/25 06:18:54;;;;;;;13.65;12.10;;;24.10;89.10;;;;;;5015901;28;20041;-73
2021/07/25 06:21:20;;;;;;;16.70;11.15;;;24.20;88.50;;;;;;4999792;28;20484;-73
2021/07/25 06:23:47;;;;;;;16.95;13.60;;;24.40;88.20;;;;;;5000136;28;20024;-74
2021/07/25 06:26:13;;;;;;;24.30;18.92;;;24.40;87.80;;;;;;4998104;28;20496;-72
2021/07/25 06:28:39;;;;;;;29.88;23.75;;;24.40;87.90;;;;;;5001326;28;20029;-72
2021/07/25 06:31:04;;;;;;;19.70;16.23;;;24.50;87.20;;;;;;4999281;28;20029;-75
2021/07/25 06:33:30;;;;;;;14.52;12.15;;;24.60;86.40;;;;;;5000790;28;20058;-77
2021/07/25 06:35:56;;;;;;;22.30;13.77;;;24.60;86.20;;;;;;4998986;28;20115;-78
2021/07/25 06:38:22;;;;;;;19.20;13.82;;;24.60;85.90;;;;;;5000396;28;20385;-78
2021/07/25 06:40:50;;;;;;;17.20;14.93;;;24.70;85.70;;;;;;5015590;28;20500;-78
2021/07/25 06:43:17;;;;;;;23.05;13.05;;;24.90;84.80;;;;;;4996956;28;20066;-78
2021/07/25 06:45:43;;;;;;;16.73;12.95;;;24.90;83.00;;;;;;4998428;28;20496;-78
2021/07/25 06:48:21;;;;;;;23.77;13.70;;;24.90;82.60;;;;;;5000439;28;20260;-78
2021/07/25 06:50:49;;;;;;;18.00;12.90;;;24.90;82.00;;;;;;5015420;28;20096;-78
2021/07/25 06:53:16;;;;;;;17.02;12.40;;;24.90;81.70;;;;;;5000162;28;20030;-78
2021/07/25 06:55:42;;;;;;;17.60;13.40;;;24.90;81.80;;;;;;5001954;28;20123;-78
2021/07/25 06:58:08;;;;;;;19.00;12.85;;;25.00;82.00;;;;;;5004868;28;20430;-78
2021/07/25 07:00:34;;;;;;;15.77;12.77;;;25.10;81.30;;;;;;5004115;28;20580;-78
2021/07/25 07:03:00;;;;;;;14.90;11.38;;;25.40;80.80;;;;;;5001981;28;20037;-78
2021/07/25 07:05:27;;;;;;;16.77;12.30;;;25.40;80.00;;;;;;5002906;28;20033;-77
2021/07/25 07:07:56;;;;;;;15.27;11.73;;;25.40;78.70;;;;;;5003305;28;20061;-78
2021/07/25 07:10:23;;;;;;;14.77;12.38;;;25.30;77.90;;;;;;5003682;28;20053;-78
2021/07/25 07:12:50;;;;;;;16.50;11.55;;;25.20;78.80;;;;;;5062277;23;20049;-74
2021/07/25 07:15:18;;;;;;;11.85;10.00;;;25.10;77.60;;;;;;5009433;28;20062;-74
2021/07/25 07:17:44;;;;;;;21.80;10.90;;;25.00;78.00;;;;;;5003831;28;20076;-75
2021/07/25 07:20:11;;;;;;;16.67;10.95;;;24.90;77.60;;;;;;5001798;28;20037;-74
2021/07/25 07:22:38;;;;;;;11.23;9.98;;;24.80;78.20;;;;;;5003352;28;20049;-75
2021/07/25 07:25:05;;;;;;;13.85;10.23;;;24.80;77.60;;;;;;5002359;28;20104;-75
2021/07/25 07:27:31;;;;;;;13.07;11.10;;;24.60;78.20;;;;;;5003653;28;20042;-74
2021/07/25 07:29:57;;;;;;;15.73;11.32;;;24.70;78.20;;;;;;5003171;28;20026;-74
2021/07/25 07:32:23;;;;;;;10.63;9.38;;;24.80;78.40;;;;;;5003738;28;20026;-74
2021/07/25 07:34:48;;;;;;;14.90;10.40;;;24.90;77.70;;;;;;5002265;28;20097;-74
2021/07/25 07:37:14;;;;;;;14.48;10.68;;;24.90;78.00;;;;;;5003741;28;20046;-74
2021/07/25 07:39:41;;;;;;;17.70;11.38;;;24.90;77.00;;;;;;5003180;28;20080;-74
2021/07/25 07:42:07;;;;;;;11.48;9.32;;;24.80;76.80;;;;;;5001249;28;20026;-74
2021/07/25 07:44:33;;;;;;;12.60;10.05;;;24.60;77.60;;;;;;5003896;28;20144;-73
2021/07/25 07:46:59;;;;;;;13.90;10.63;;;24.50;78.20;;;;;;5002597;28;20014;-74
2021/07/25 07:49:25;;;;;;;13.20;10.07;;;24.50;78.00;;;;;;5004024;28;20507;-74
2021/07/25 07:51:51;;;;;;;14.60;10.32;;;24.60;77.80;;;;;;5003395;28;20026;-75
2021/07/25 07:54:17;;;;;;;11.10;9.85;;;24.60;78.00;;;;;;5002002;28;20042;-74
2021/07/25 07:56:42;;;;;;;13.73;10.98;;;24.70;78.10;;;;;;5002589;28;20083;-74
2021/07/25 07:59:08;;;;;;;12.50;9.10;;;24.70;77.90;;;;;;5001836;28;20062;-78
2021/07/25 08:01:33;;;;;;;12.10;10.15;;;24.70;75.70;;;;;;5001817;28;20087;-75
2021/07/25 08:03:59;;;;;;;13.10;9.73;;;24.70;77.10;;;;;;5002200;28;20105;-75
2021/07/25 08:06:24;;;;;;;14.43;10.05;;;24.80;76.90;;;;;;5002277;28;20034;-75
2021/07/25 08:08:50;;;;;;;15.10;10.88;;;24.80;77.00;;;;;;5002564;28;20023;-75
2021/07/25 08:11:15;;;;;;;12.70;9.50;;;24.90;77.80;;;;;;5002843;28;20037;-75
2021/07/25 08:13:43;;;;;;;25.00;10.80;;;25.10;77.50;;;;;;5000764;28;20041;-75
2021/07/25 08:16:09;;;;;;;11.40;8.93;;;25.30;76.30;;;;;;5002936;28;20695;-75
2021/07/25 08:18:34;;;;;;;9.77;8.77;;;25.30;77.20;;;;;;5001913;28;20201;-77
2021/07/25 08:21:00;;;;;;;12.63;10.23;;;25.30;77.20;;;;;;5016166;28;20549;-78
2021/07/25 08:23:25;;;;;;;14.13;9.07;;;25.40;77.50;;;;;;5005215;28;20042;-77
2021/07/25 08:25:51;;;;;;;11.00;8.63;;;25.70;77.30;;;;;;5002167;28;20134;-76
2021/07/25 08:28:16;;;;;;;10.63;9.05;;;25.70;76.70;;;;;;5004424;28;20041;-78
2021/07/25 08:30:42;;;;;;;14.25;9.02;;;25.70;76.00;;;;;;5005236;28;20018;-77
2021/07/25 08:33:08;;;;;;;13.43;10.70;;;25.80;76.70;;;;;;5002046;28;20381;-74
2021/07/25 08:35:34;;;;;;;10.15;8.55;;;25.90;76.70;;;;;;5002869;28;20037;-75
2021/07/25 08:37:59;;;;;;;10.55;9.07;;;26.10;75.90;;;;;;5015663;28;20026;-75
2021/07/25 08:40:26;;;;;;;12.57;9.25;;;26.10;74.00;;;;;;5002724;28;20029;-75
2021/07/25 08:43:03;;;;;;;12.05;8.13;;;26.00;73.00;;;;;;5004937;28;20033;-76
2021/07/25 08:45:30;;;;;;;10.98;8.77;;;25.70;73.10;;;;;;5002492;28;20102;-75
2021/07/25 08:48:14;;;;;;;11.73;8.30;;;25.60;74.50;;;;;;5002170;28;20077;-75
2021/07/25 08:51:03;;;;;;;11.15;9.90;;;25.70;75.30;;;;;;5003297;28;20033;-75
2021/07/25 08:53:36;;;;;;;13.15;8.52;;;26.00;75.80;;;;;;5001021;28;20049;-76
2021/07/25 08:56:03;;;;;;;12.23;8.65;;;26.10;75.00;;;;;;5008239;28;20029;-81
2021/07/25 08:58:29;;;;;;;7.93;7.15;;;26.20;75.10;;;;;;5010532;28;20029;-79
2021/07/25 09:00:55;;;;;;;10.60;7.53;;;26.40;74.30;;;;;;5011881;28;20447;-81
2021/07/25 09:03:22;;;;;;;7.60;5.70;;;26.30;72.10;;;;;;5018067;28;20030;-76
2021/07/25 09:05:48;;;;;;;10.25;8.25;;;26.00;71.40;;;;;;5003052;28;20044;-75
2021/07/25 09:08:14;;;;;;;7.65;6.85;;;25.70;71.50;;;;;;5002014;28;20467;-73
2021/07/25 09:10:40;;;;;;;11.55;6.53;;;25.60;72.20;;;;;;5003683;28;20030;-74
2021/07/25 09:13:06;;;;;;;9.40;7.57;;;25.70;73.00;;;;;;5001344;28;20061;-74
2021/07/25 09:15:35;;;;;;;11.30;7.60;;;25.70;72.30;;;;;;5008115;28;20422;-74
2021/07/25 09:18:03;;;;;;;11.65;8.18;;;25.90;73.10;;;;;;5001654;28;20022;-75
2021/07/25 09:20:29;;;;;;;10.30;8.63;;;26.00;71.50;;;;;;5002811;28;20113;-74
2021/07/25 09:23:06;;;;;;;9.10;8.13;;;26.00;72.60;;;;;;5003249;28;20033;-74
2021/07/25 09:25:40;;;;;;;10.95;8.30;;;26.10;73.30;;;;;;5001335;28;20037;-75
2021/07/25 09:28:08;;;;;;;12.13;8.90;;;26.20;73.20;;;;;;5003538;28;20065;-75
2021/07/25 09:30:34;;;;;;;11.73;10.00;;;26.30;72.60;;;;;;5000779;28;20113;-77
2021/07/25 09:33:00;;;;;;;11.23;8.88;;;26.30;72.50;;;;;;5004333;28;20028;-77
2021/07/25 09:35:29;;;;;;;13.55;10.32;;;26.20;71.80;;;;;;5001063;28;20030;-75
2021/07/25 09:37:56;;;;;;;16.20;9.88;;;26.10;73.40;;;;;;4999985;28;20034;-74
2021/07/25 09:40:27;;;;;;;11.50;8.32;;;26.40;74.20;;;;;;5001233;28;20520;-77
2021/07/25 09:43:11;;;;;;;12.45;9.45;;;26.80;73.50;;;;;;5002344;28;20038;-78
2021/07/25 09:45:50;;;;;;;11.27;8.32;;;27.10;73.60;;;;;;4999431;28;20026;-76
2021/07/25 09:48:19;;;;;;;12.80;9.13;;;27.30;72.40;;;;;;5000542;28;20018;-75
2021/07/25 09:50:45;;;;;;;9.75;7.90;;;27.30;71.60;;;;;;5001129;28;20018;-75
2021/07/25 09:53:12;;;;;;;10.95;8.30;;;27.20;70.90;;;;;;4998871;28;20047;-76
2021/07/25 09:55:38;;;;;;;9.68;8.35;;;27.00;70.90;;;;;;5001298;28;20034;-76
2021/07/25 09:58:05;;;;;;;13.15;11.25;;;27.00;71.20;;;;;;5001265;28;20531;-76
2021/07/25 10:00:44;;;;;;;13.30;10.77;;;27.00;71.40;;;;;;5001603;28;20038;-76
2021/07/25 10:03:21;;;;;;;13.07;9.07;;;27.20;72.00;;;;;;4997516;28;20038;-75
2021/07/25 10:05:53;;;;;;;14.88;10.57;;;27.30;71.40;;;;;;4998146;28;20026;-77
2021/07/25 10:08:22;;;;;;;12.60;8.52;;;27.20;71.50;;;;;;4996726;28;20038;-70
2021/07/25 10:10:49;;;;;;;10.38;8.20;;;27.30;70.60;;;;;;5002632;28;20026;-70
2021/07/25 10:13:17;;;;;;;12.52;8.82;;;27.10;69.80;;;;;;4999093;28;20049;-70
2021/07/25 10:15:59;;;;;;;8.88;7.63;;;26.80;69.70;;;;;;5000273;28;20061;-70
2021/07/25 10:18:26;;;;;;;10.77;8.07;;;26.70;70.70;;;;;;4999491;28;20042;-70
2021/07/25 10:20:56;;;;;;;10.38;8.50;;;26.60;70.30;;;;;;5000009;28;20030;-70
2021/07/25 10:23:31;;;;;;;10.98;7.88;;;26.40;70.90;;;;;;5001871;28;20085;-70
2021/07/25 10:26:00;;;;;;;9.35;7.97;;;26.30;71.40;;;;;;5000066;28;20034;-70
2021/07/25 10:28:29;;;;;;;9.60;8.70;;;26.30;71.50;;;;;;5000573;28;20728;-70
2021/07/25 10:30:55;;;;;;;9.55;8.32;;;26.30;71.20;;;;;;5000224;28;20061;-70
2021/07/25 10:33:21;;;;;;;11.95;8.13;;;26.30;71.30;;;;;;5000242;28;20061;-70
2021/07/25 10:35:47;;;;;;;10.32;7.55;;;26.20;71.70;;;;;;5000807;28;20034;-70
2021/07/25 10:38:12;;;;;;;11.35;8.30;;;26.20;71.30;;;;;;4998956;28;20057;-70
2021/07/25 10:40:39;;;;;;;9.35;7.10;;;26.20;71.20;;;;;;5000874;28;20034;-70
2021/07/25 10:43:07;;;;;;;8.93;8.02;;;26.20;70.90;;;;;;4999164;28;20050;-70
2021/07/25 10:45:34;;;;;;;8.73;7.65;;;26.20;71.20;;;;;;5000215;28;20026;-70
2021/07/25 10:48:18;;;;;;;8.45;7.38;;;26.40;71.60;;;;;;4999044;28;20023;-70
2021/07/25 10:50:43;;;;;;;7.82;7.03;;;26.50;69.60;;;;;;5000159;28;20144;-70
2021/07/25 10:53:29;;;;;;;8.88;7.47;;;26.50;69.50;;;;;;4998941;28;20787;-70
2021/07/25 10:55:54;;;;;;;9.27;7.35;;;26.50;69.40;;;;;;4999909;28;20035;-70
2021/07/25 10:58:21;;;;;;;9.02;8.10;;;26.60;69.70;;;;;;4999355;28;20071;-70
2021/07/25 11:00:56;;;;;;;8.63;7.78;;;26.90;69.70;;;;;;5006547;28;20030;-70
2021/07/25 11:03:25;;;;;;;14.30;8.43;;;27.10;69.90;;;;;;4999332;28;20069;-71
2021/07/25 11:06:00;;;;;;;8.65;7.05;;;27.20;67.50;;;;;;4999822;28;20301;-70
2021/07/25 11:08:36;;;;;;;11.65;7.38;;;27.20;68.20;;;;;;4999029;28;20052;-70
2021/07/25 11:11:39;;;;;;;12.48;9.23;;;27.20;67.80;;;;;;4997618;28;20040;-69
2021/07/25 11:14:06;;;;;;;8.57;7.78;;;27.40;68.10;;;;;;4997075;28;20034;-78
2021/07/25 11:16:32;;;;;;;9.82;7.45;;;27.60;68.10;;;;;;5008606;28;20035;-82
2021/07/25 11:19:23;;;;;;;9.82;7.43;;;27.80;67.40;;;;;;4995030;28;20261;-73
2021/07/25 11:21:53;;;;;;;10.35;7.40;;;27.80;66.60;;;;;;5003255;28;20030;-76
2021/07/25 11:24:26;;;;;;;10.25;9.18;;;27.80;67.60;;;;;;4999550;28;20031;-71
2021/07/25 11:26:53;;;;;;;11.25;8.65;;;27.80;66.40;;;;;;5000172;28;20014;-71
2021/07/25 11:29:30;;;;;;;11.13;9.05;;;27.80;66.90;;;;;;4999862;28;20057;-74
2021/07/25 11:31:56;;;;;;;14.10;10.13;;;27.90;67.20;;;;;;4997630;28;20092;-71
2021/07/25 11:34:31;;;;;;;10.95;9.43;;;28.10;66.60;;;;;;4999040;28;20038;-70
2021/07/25 11:37:01;;;;;;;10.35;9.25;;;28.30;67.40;;;;;;5000597;28;20030;-70
2021/07/25 11:39:26;;;;;;;11.18;9.68;;;28.60;66.40;;;;;;5000534;28;20057;-70
2021/07/25 11:41:52;;;;;;;9.77;8.80;;;28.50;65.70;;;;;;5000432;28;20951;-74
2021/07/25 11:44:28;;;;;;;11.27;8.40;;;28.40;65.60;;;;;;5004279;28;20392;-76
2021/07/25 11:46:55;;;;;;;10.00;8.30;;;28.20;66.20;;;;;;5001953;28;20072;-70
2021/07/25 11:49:36;;;;;;;8.63;7.82;;;28.10;66.30;;;;;;5002301;28;20065;-70
2021/07/25 11:52:12;;;;;;;13.13;8.98;;;28.10;65.20;;;;;;5003129;28;20103;-70
2021/07/25 11:54:42;;;;;;;9.18;8.27;;;27.80;65.50;;;;;;5000965;28;20117;-70
2021/07/25 11:57:09;;;;;;;9.57;8.57;;;27.60;66.20;;;;;;5000990;28;20810;-70
2021/07/25 11:59:36;;;;;;;8.93;8.13;;;27.60;67.30;;;;;;5016679;28;20042;-70
2021/07/25 12:02:02;;;;;;;9.68;8.68;;;27.70;67.20;;;;;;5002707;28;20034;-71
2021/07/25 12:04:42;;;;;;;11.98;7.35;;;27.90;67.10;;;;;;5003047;28;20057;-70
2021/07/25 12:07:11;;;;;;;9.18;8.00;;;27.90;66.50;;;;;;5002466;28;20144;-70
2021/07/25 12:09:37;;;;;;;11.10;8.95;;;27.70;65.90;;;;;;5002076;28;20026;-70
2021/07/25 12:12:17;;;;;;;8.02;7.28;;;27.40;65.80;;;;;;5001915;28;20031;-71
2021/07/25 12:14:46;;;;;;;11.68;7.50;;;27.10;66.40;;;;;;5003376;28;20544;-70
2021/07/25 12:17:12;;;;;;;11.07;8.00;;;27.00;67.50;;;;;;5000602;28;20053;-70
2021/07/25 12:19:42;;;;;;;13.82;7.88;;;27.00;67.70;;;;;;5000566;28;20030;-70
2021/07/25 12:22:13;;;;;;;8.48;7.55;;;27.20;67.80;;;;;;4999762;28;20030;-71
2021/07/25 12:24:42;;;;;;;13.50;7.75;;;27.20;67.20;;;;;;4993110;28;20181;-71
2021/07/25 12:27:25;;;;;;;11.52;8.80;;;27.10;67.10;;;;;;5001945;28;20023;-70
2021/07/25 12:29:50;;;;;;;9.05;8.13;;;27.10;67.90;;;;;;5002988;28;20485;-70
2021/07/25 12:32:30;;;;;;;8.77;7.45;;;27.50;68.20;;;;;;5015477;28;20026;-71
2021/07/25 12:35:11;;;;;;;8.95;7.28;;;27.80;66.80;;;;;;5002314;28;20026;-71
2021/07/25 12:37:57;;;;;;;8.32;7.53;;;27.80;65.50;;;;;;4999990;28;20057;-70
2021/07/25 12:40:30;;;;;;;9.45;7.60;;;27.70;65.90;;;;;;4998238;28;20030;-70
2021/07/25 12:42:59;;;;;;;8.32;7.55;;;27.80;66.50;;;;;;5001510;28;20034;-70